M I D A S
Marine Information and Data Acquisition System
Tripno 1700 of the Zeeleeuw from 2009-05-27 07:00:46 to 2009-05-27 12:25:24
Back to CruiseResearch ActivitiesStationsMapUnderway DataData graphs

EquipmentUnitsComments
TimeDGPSUTC
LatitudeDGPSDM.mWGS84
LongitudeDGPSDM.mWGS84
SpeedMeteo Stationm/sRelative wind speed
DirectionMeteo StationdegRelative wind direction
TemperatureMeteo Stationdeg CelciusAir temperature
PressureMeteo StationPaAtmospheric pressure
HumidityMeteo Station%Relative humidity
Missing or incorrect values are displayed as -999
Metereological data collected by the RV Zeeleeuw from 2009-05-27 07:04:53 to 2009-05-27 17:11:54
                                                                                    Next 1000 lines
Time Latitude Longitude Speed Direction Temperature Pressure Humidity
2009-05-27 07:05:03 51°13.663 2°55.955 5.7 44 12.2 102450 72
2009-05-27 07:05:08 51°13.664 2°55.953 4.3 36 12.2 102440 72
2009-05-27 07:05:12 51°13.665 2°55.95 4.3 35 12.2 102440 72
2009-05-27 07:05:18 51°13.666 2°55.947 3.6 34 12.2 102440 72
2009-05-27 07:05:24 51°13.667 2°55.942 3.5 17 12.2 102440 72
2009-05-27 07:05:29 51°13.668 2°55.938 4 42 12.2 102440 72
2009-05-27 07:05:35 51°13.67 2°55.933 6.1 33 12.2 102440 72
2009-05-27 07:05:41 51°13.672 2°55.927 5.7 43 12.2 102440 72
2009-05-27 07:05:47 51°13.674 2°55.921 5.3 37 12.2 102440 72
2009-05-27 07:05:52 51°13.675 2°55.916 4.9 25 12.3 102440 72
2009-05-27 07:05:56 51°13.676 2°55.911 4.9 37 12.3 102440 72
2009-05-27 07:06:02 51°13.678 2°55.904 5.8 28 12.3 102440 72
2009-05-27 07:06:07 51°13.679 2°55.898 7.7 37 12.3 102440 72
2009-05-27 07:06:11 51°13.681 2°55.894 7.4 78 12.3 102440 72
2009-05-27 07:06:16 51°13.682 2°55.888 6.4 37 12.3 102440 72
2009-05-27 07:06:22 51°13.683 2°55.881 6 22 12.3 102440 72
2009-05-27 07:06:27 51°13.684 2°55.875 6.4 45 12.3 102440 72
2009-05-27 07:06:32 51°13.686 2°55.87 5.7 79 12.3 102440 71
2009-05-27 07:06:36 51°13.686 2°55.865 6.2 31 12.3 102440 71
2009-05-27 07:06:42 51°13.688 2°55.859 5.3 43 12.3 102440 71
2009-05-27 07:06:47 51°13.689 2°55.853 4.7 43 12.3 102440 71
2009-05-27 07:06:51 51°13.69 2°55.848 4.3 22 12.3 102440 71
2009-05-27 07:06:56 51°13.691 2°55.843 4.2 40 12.3 102440 71
2009-05-27 07:07:02 51°13.692 2°55.836 4.2 42 12.3 102440 71
2009-05-27 07:07:07 51°13.693 2°55.83 3.5 42 12.3 102440 71
2009-05-27 07:07:11 51°13.694 2°55.825 4.3 23 12.3 102440 71
2009-05-27 07:07:16 51°13.695 2°55.819 3.9 36 12.3 102440 71
2009-05-27 07:07:22 51°13.696 2°55.812 5.5 45 12.3 102440 71
2009-05-27 07:07:27 51°13.697 2°55.806 3.7 37 12.3 102440 71
2009-05-27 07:07:31 51°13.698 2°55.802 3.9 40 12.3 102440 71
2009-05-27 07:07:36 51°13.698 2°55.797 3.7 33 12.3 102440 71
2009-05-27 07:07:42 51°13.699 2°55.79 4.1 28 12.4 102450 71
2009-05-27 07:07:47 51°13.7 2°55.785 3.2 31 12.4 102450 71
2009-05-27 07:07:51 51°13.7 2°55.781 4.9 81 12.4 102440 71
2009-05-27 07:07:56 51°13.701 2°55.776 4.8 41 12.4 102440 71
2009-05-27 07:08:01 51°13.701 2°55.772 3.4 42 12.4 102440 71
2009-05-27 07:08:06 51°13.702 2°55.767 1.9 36 12.4 102440 71
2009-05-27 07:08:11 51°13.703 2°55.764 2.6 80 12.4 102450 71
2009-05-27 07:08:16 51°13.703 2°55.762 1.5 33 12.4 102450 71
2009-05-27 07:08:20 51°13.703 2°55.762 1.7 27 12.5 102440 71
2009-05-27 07:08:25 51°13.704 2°55.761 1.9 39 12.5 102440 71
2009-05-27 07:08:30 51°13.705 2°55.76 2.4 73 12.5 102450 71
2009-05-27 07:08:35 51°13.705 2°55.76 3.6 40 12.5 102450 71
2009-05-27 07:08:40 51°13.706 2°55.76 3.4 26 12.5 102440 71
2009-05-27 07:08:44 51°13.707 2°55.76 3.2 39 12.5 102440 71
2009-05-27 07:08:49 51°13.707 2°55.76 2.1 74 12.6 102440 71
2009-05-27 07:08:54 51°13.708 2°55.76 1.6 37 12.6 102440 71
2009-05-27 07:08:59 51°13.708 2°55.759 1.8 25 12.6 102450 71
2009-05-27 07:09:04 51°13.708 2°55.758 2.9 36 12.6 102450 71
2009-05-27 07:09:08 51°13.708 2°55.758 3.5 27 12.6 102450 70
2009-05-27 07:09:14 51°13.708 2°55.756 3.8 31 12.6 102450 70
2009-05-27 07:09:19 51°13.708 2°55.755 2.6 25 12.6 102450 70
2009-05-27 07:09:23 51°13.708 2°55.754 3.8 36 12.6 102450 70
2009-05-27 07:09:28 51°13.707 2°55.752 4.8 78 12.6 102440 70
2009-05-27 07:09:33 51°13.707 2°55.751 5.4 37 12.6 102440 70
2009-05-27 07:09:38 51°13.706 2°55.749 7.5 22 12.7 102450 70
2009-05-27 07:09:43 51°13.705 2°55.746 5.2 269 12.7 102450 70
2009-05-27 07:09:48 51°13.704 2°55.745 6.8 81 12.7 102450 70
2009-05-27 07:09:53 51°13.703 2°55.743 6.9 40 12.7 102450 70
2009-05-27 07:09:58 51°13.702 2°55.742 6.3 80 12.7 102450 69
2009-05-27 07:10:04 51°13.702 2°55.741 4.5 38 12.7 102450 69
2009-05-27 07:10:08 51°13.703 2°55.741 2.9 281 12.7 102440 69
2009-05-27 07:10:13 51°13.705 2°55.742 2.4 263 12.7 102440 69
2009-05-27 07:10:18 51°13.707 2°55.742 3.2 259 12.7 102450 68
2009-05-27 07:10:23 51°13.711 2°55.742 3.4 259 12.7 102450 68
2009-05-27 07:10:28 51°13.715 2°55.741 3.1 280 12.7 102450 68
2009-05-27 07:10:32 51°13.718 2°55.74 2.5 269 12.7 102450 68
2009-05-27 07:10:38 51°13.724 2°55.737 3 252 12.7 102450 68
2009-05-27 07:10:43 51°13.729 2°55.733 5.2 242 12.7 102450 68
2009-05-27 07:10:48 51°13.734 2°55.728 5.3 285 12.7 102450 69
2009-05-27 07:10:53 51°13.74 2°55.722 4.5 32 12.7 102450 69
2009-05-27 07:10:58 51°13.746 2°55.716 5 285 12.7 102450 69
2009-05-27 07:11:03 51°13.753 2°55.708 3.4 246 12.7 102450 69
2009-05-27 07:11:08 51°13.761 2°55.701 2.7 284 12.8 102450 69
2009-05-27 07:11:13 51°13.768 2°55.693 4.1 317 12.8 102450 69
2009-05-27 07:11:18 51°13.776 2°55.685 3.3 281 12.8 102440 69
2009-05-27 07:11:23 51°13.785 2°55.677 4.6 36 12.8 102440 69
2009-05-27 07:11:28 51°13.793 2°55.669 5.8 279 12.8 102450 69
2009-05-27 07:11:33 51°13.802 2°55.66 6.5 37 12.8 102450 69
2009-05-27 07:11:38 51°13.811 2°55.652 8.2 23 12.9 102450 69
2009-05-27 07:11:43 51°13.82 2°55.644 5.8 324 12.9 102450 69
2009-05-27 07:11:48 51°13.83 2°55.637 3.6 25 12.9 102450 69
2009-05-27 07:11:53 51°13.84 2°55.628 4.3 268 12.9 102450 69
2009-05-27 07:11:58 51°13.85 2°55.621 4.5 280 12.9 102440 69
2009-05-27 07:12:03 51°13.86 2°55.613 5.7 34 12.9 102440 69
2009-05-27 07:12:08 51°13.87 2°55.605 7.3 280 12.9 102440 69
2009-05-27 07:12:13 51°13.88 2°55.598 4.5 37 12.9 102440 69
2009-05-27 07:12:18 51°13.891 2°55.59 3.4 286 12.9 102470 69
2009-05-27 07:12:23 51°13.901 2°55.582 3.5 337 12.9 102470 69
2009-05-27 07:12:28 51°13.912 2°55.574 5 284 12.9 102460 68
2009-05-27 07:12:32 51°13.92 2°55.568 9.2 37 12.9 102460 68
2009-05-27 07:12:38 51°13.933 2°55.559 9 23 13 102450 68
2009-05-27 07:12:43 51°13.944 2°55.551 4 34 13 102450 68
2009-05-27 07:12:48 51°13.955 2°55.542 3.2 279 13 102450 68
2009-05-27 07:12:52 51°13.964 2°55.536 7.6 244 13 102450 68
2009-05-27 07:12:58 51°13.977 2°55.526 6.7 21 13 102450 68
2009-05-27 07:13:03 51°13.988 2°55.518 8.3 242 13 102450 68
2009-05-27 07:13:08 51°13.999 2°55.511 4.9 278 13 102460 68
2009-05-27 07:13:13 51°14.01 2°55.503 8.7 253 13 102460 68
2009-05-27 07:13:18 51°14.02 2°55.494 7.3 242 13 102450 68
2009-05-27 07:13:23 51°14.031 2°55.486 5.1 321 13 102450 68
2009-05-27 07:13:28 51°14.042 2°55.478 10.8 280 13 102450 68
2009-05-27 07:13:32 51°14.051 2°55.471 9.3 38 13 102450 68
2009-05-27 07:13:38 51°14.064 2°55.462 8.1 27 13 102460 67
2009-05-27 07:13:43 51°14.075 2°55.454 4.4 236 13 102460 67
2009-05-27 07:13:48 51°14.086 2°55.446 5.1 24 13 102460 68
2009-05-27 07:13:53 51°14.098 2°55.438 7.5 322 13 102460 68
2009-05-27 07:13:58 51°14.109 2°55.429 4.4 282 13 102460 68
2009-05-27 07:14:03 51°14.12 2°55.421 3.6 318 13 102460 68
2009-05-27 07:14:08 51°14.132 2°55.413 4.9 25 13 102450 67
2009-05-27 07:14:13 51°14.143 2°55.404 7.4 318 13 102450 67
2009-05-27 07:14:18 51°14.154 2°55.395 8.6 280 13 102450 68
2009-05-27 07:14:23 51°14.165 2°55.387 11 32 13 102450 68
2009-05-27 07:14:28 51°14.176 2°55.378 8.3 282 13 102450 68
2009-05-27 07:14:33 51°14.187 2°55.368 8.7 240 13 102450 68
2009-05-27 07:14:38 51°14.198 2°55.358 7.3 27 13 102460 68
2009-05-27 07:14:43 51°14.208 2°55.347 9.5 239 13 102460 68
2009-05-27 07:14:48 51°14.218 2°55.335 8.6 19 13 102450 68
2009-05-27 07:14:53 51°14.228 2°55.323 13.5 240 13 102450 68
2009-05-27 07:14:58 51°14.237 2°55.31 12.3 277 13 102450 68
2009-05-27 07:15:03 51°14.246 2°55.297 11.8 239 13 102450 68
2009-05-27 07:15:08 51°14.255 2°55.283 12.9 284 13 102460 69
2009-05-27 07:15:12 51°14.262 2°55.272 12 236 13 102460 69
2009-05-27 07:15:18 51°14.272 2°55.254 12.2 278 13 102450 69
2009-05-27 07:15:23 51°14.281 2°55.239 12.7 235 13 102450 69
2009-05-27 07:15:28 51°14.289 2°55.224 13.3 278 13 102450 70
2009-05-27 07:15:33 51°14.297 2°55.208 13.1 237 13 102450 70
2009-05-27 07:15:38 51°14.305 2°55.192 15 22 13 102450 71
2009-05-27 07:15:43 51°14.313 2°55.176 12.7 234 13 102450 71
2009-05-27 07:15:48 51°14.32 2°55.159 11.2 281 13 102460 72
2009-05-27 07:15:53 51°14.328 2°55.141 7.7 321 13 102460 72
2009-05-27 07:15:58 51°14.335 2°55.124 12 281 13 102460 72
2009-05-27 07:16:03 51°14.343 2°55.107 12.7 35 13 102460 72
2009-05-27 07:16:08 51°14.351 2°55.09 12.9 279 13 102450 71
2009-05-27 07:16:13 51°14.359 2°55.073 17.1 234 13 102450 71
2009-05-27 07:16:18 51°14.367 2°55.057 17.5 284 13 102450 72
2009-05-27 07:16:23 51°14.375 2°55.04 18 37 13 102450 72
2009-05-27 07:16:28 51°14.382 2°55.023 16.1 24 13 102450 73
2009-05-27 07:16:33 51°14.39 2°55.006 17.4 235 13 102450 73
2009-05-27 07:16:38 51°14.399 2°54.99 18.3 26 13 102430 75
2009-05-27 07:16:43 51°14.407 2°54.973 14.9 237 13 102430 75
2009-05-27 07:16:48 51°14.415 2°54.956 15 282 13 102450 74
2009-05-27 07:16:53 51°14.423 2°54.939 14.2 34 13 102450 74
2009-05-27 07:16:58 51°14.432 2°54.922 18.6 280 12.9 102450 72
2009-05-27 07:17:03 51°14.44 2°54.906 16.5 242 12.9 102450 72
2009-05-27 07:17:08 51°14.45 2°54.89 14 281 12.8 102450 71
2009-05-27 07:17:13 51°14.46 2°54.875 16.6 241 12.8 102450 71
2009-05-27 07:17:18 51°14.47 2°54.86 15 21 12.8 102460 72
2009-05-27 07:17:23 51°14.481 2°54.846 13.7 243 12.8 102460 72
2009-05-27 07:17:28 51°14.493 2°54.831 17.6 284 12.8 102450 71
2009-05-27 07:17:33 51°14.505 2°54.818 14.1 246 12.8 102450 71
2009-05-27 07:17:38 51°14.517 2°54.804 13.4 23 12.8 102460 72
2009-05-27 07:17:43 51°14.529 2°54.79 14.4 241 12.8 102460 72
2009-05-27 07:17:48 51°14.541 2°54.777 17.5 283 12.8 102430 74
2009-05-27 07:17:53 51°14.554 2°54.764 13.9 242 12.8 102430 74
2009-05-27 07:17:58 51°14.567 2°54.752 15.1 280 12.8 102440 73
2009-05-27 07:18:03 51°14.581 2°54.741 18.5 246 12.8 102440 73
2009-05-27 07:18:08 51°14.594 2°54.729 13.9 284 12.8 102440 74
2009-05-27 07:18:12 51°14.605 2°54.72 14.4 248 12.8 102440 74
2009-05-27 07:18:18 51°14.622 2°54.707 16.3 284 12.8 102450 74
2009-05-27 07:18:23 51°14.636 2°54.696 13.9 250 12.8 102450 74
2009-05-27 07:18:28 51°14.65 2°54.684 18.2 20 12.8 102440 74
2009-05-27 07:18:33 51°14.664 2°54.673 16.2 251 12.8 102440 74
2009-05-27 07:18:38 51°14.679 2°54.661 12.7 251 12.8 102460 74
2009-05-27 07:18:43 51°14.693 2°54.651 12.5 248 12.8 102460 74
2009-05-27 07:18:48 51°14.708 2°54.639 13.9 248 12.8 102470 74
2009-05-27 07:18:53 51°14.723 2°54.628 13.3 247 12.8 102470 74
2009-05-27 07:18:58 51°14.737 2°54.615 13.4 282 12.8 102430 74
2009-05-27 07:19:03 51°14.751 2°54.603 16.2 247 12.8 102430 74
2009-05-27 07:19:08 51°14.766 2°54.59 13.3 284 12.8 102440 74
2009-05-27 07:19:13 51°14.78 2°54.577 13.3 249 12.8 102440 74
2009-05-27 07:19:18 51°14.794 2°54.564 14.4 278 12.8 102460 75
2009-05-27 07:19:23 51°14.808 2°54.552 13.2 248 12.8 102460 75
2009-05-27 07:19:28 51°14.822 2°54.539 13.5 284 12.8 102450 75
2009-05-27 07:19:33 51°14.836 2°54.526 13.1 242 12.8 102450 75
2009-05-27 07:19:38 51°14.85 2°54.512 14.2 26 12.8 102460 75
2009-05-27 07:19:43 51°14.864 2°54.5 14.3 243 12.8 102460 75
2009-05-27 07:19:48 51°14.878 2°54.489 16 284 12.7 102460 74
2009-05-27 07:19:53 51°14.892 2°54.477 12.9 243 12.7 102460 74
2009-05-27 07:19:58 51°14.907 2°54.466 15.8 247 12.8 102460 76
2009-05-27 07:20:03 51°14.921 2°54.455 11.9 245 12.8 102460 76
2009-05-27 07:20:08 51°14.936 2°54.444 16.9 279 12.8 102440 77
2009-05-27 07:20:13 51°14.95 2°54.434 14.2 242 12.8 102440 77
2009-05-27 07:20:18 51°14.964 2°54.424 16.8 282 12.8 102440 76
2009-05-27 07:20:23 51°14.979 2°54.413 12.6 242 12.8 102440 76
2009-05-27 07:20:28 51°14.994 2°54.403 12.5 282 12.8 102440 76
2009-05-27 07:20:33 51°15.008 2°54.392 17.5 243 12.8 102440 76
2009-05-27 07:20:38 51°15.023 2°54.381 15.4 23 12.8 102460 77
2009-05-27 07:20:43 51°15.038 2°54.371 13.6 243 12.8 102460 77
2009-05-27 07:20:48 51°15.052 2°54.36 16.8 25 12.8 102440 76
2009-05-27 07:20:53 51°15.067 2°54.35 14.1 245 12.8 102440 76
2009-05-27 07:20:58 51°15.081 2°54.34 16.6 279 12.8 102440 76
2009-05-27 07:21:03 51°15.096 2°54.33 14 241 12.8 102440 76
2009-05-27 07:21:08 51°15.11 2°54.319 16 23 12.8 102440 76
2009-05-27 07:21:12 51°15.122 2°54.311 15.4 243 12.8 102440 76
2009-05-27 07:21:18 51°15.139 2°54.298 13.9 286 12.7 102440 76
2009-05-27 07:21:23 51°15.153 2°54.288 14.9 241 12.7 102440 76
2009-05-27 07:21:28 51°15.168 2°54.277 17.2 22 12.8 102470 77
2009-05-27 07:21:33 51°15.182 2°54.267 14.3 244 12.8 102470 77
2009-05-27 07:21:38 51°15.197 2°54.256 18.2 22 12.7 102440 76
2009-05-27 07:21:43 51°15.211 2°54.246 16.6 245 12.7 102440 76
2009-05-27 07:21:48 51°15.225 2°54.234 15.8 279 12.7 102430 75
2009-05-27 07:21:53 51°15.239 2°54.224 12.5 246 12.7 102430 75
2009-05-27 07:21:58 51°15.253 2°54.212 14.3 23 12.7 102440 75
2009-05-27 07:22:03 51°15.267 2°54.201 13.1 239 12.7 102440 75
2009-05-27 07:22:08 51°15.281 2°54.189 15.9 283 12.7 102430 74
2009-05-27 07:22:13 51°15.295 2°54.177 13 241 12.7 102430 74
2009-05-27 07:22:18 51°15.309 2°54.165 17.4 22 12.7 102450 75
2009-05-27 07:22:23 51°15.322 2°54.153 14 242 12.7 102450 75
2009-05-27 07:22:28 51°15.336 2°54.14 14.5 281 12.7 102430 76
2009-05-27 07:22:33 51°15.35 2°54.128 13.9 240 12.7 102430 76
2009-05-27 07:22:38 51°15.363 2°54.115 13.5 26 12.7 102430 77
2009-05-27 07:22:43 51°15.377 2°54.102 13.5 243 12.7 102430 77
2009-05-27 07:22:48 51°15.39 2°54.089 14.9 286 12.7 102430 77
2009-05-27 07:22:53 51°15.404 2°54.076 16.6 243 12.7 102430 77
2009-05-27 07:22:58 51°15.417 2°54.063 12.8 286 12.7 102450 77
2009-05-27 07:23:03 51°15.431 2°54.05 13.3 241 12.7 102450 77
2009-05-27 07:23:08 51°15.445 2°54.037 13.6 23 12.7 102450 77
2009-05-27 07:23:13 51°15.459 2°54.025 14.9 238 12.7 102450 77
2009-05-27 07:23:18 51°15.473 2°54.012 19 282 12.7 102440 78
2009-05-27 07:23:23 51°15.486 2°54 18.9 241 12.7 102440 78
2009-05-27 07:23:28 51°15.5 2°53.987 18.1 281 12.7 102440 78
2009-05-27 07:23:33 51°15.514 2°53.975 17.8 242 12.7 102440 78
2009-05-27 07:23:38 51°15.528 2°53.962 14.7 22 12.7 102430 77
2009-05-27 07:23:43 51°15.542 2°53.95 13.7 242 12.7 102430 77
2009-05-27 07:23:48 51°15.556 2°53.937 14.7 23 12.7 102430 76
2009-05-27 07:23:53 51°15.57 2°53.925 17.4 243 12.7 102430 76
2009-05-27 07:23:58 51°15.583 2°53.912 16.3 284 12.7 102420 76
2009-05-27 07:24:03 51°15.597 2°53.899 18.9 242 12.7 102420 76
2009-05-27 07:24:08 51°15.61 2°53.886 15.7 283 12.6 102430 75
2009-05-27 07:24:12 51°15.622 2°53.877 17.8 243 12.6 102430 75
2009-05-27 07:24:18 51°15.638 2°53.861 16.3 282 12.6 102420 75
2009-05-27 07:24:23 51°15.652 2°53.848 17 241 12.6 102420 75
2009-05-27 07:24:28 51°15.666 2°53.836 16.3 281 12.6 102430 75
2009-05-27 07:24:33 51°15.68 2°53.823 14.9 245 12.6 102430 75
2009-05-27 07:24:38 51°15.693 2°53.81 19 21 12.6 102440 75
2009-05-27 07:24:43 51°15.707 2°53.797 18.6 244 12.6 102440 75
2009-05-27 07:24:48 51°15.72 2°53.784 17.3 286 12.6 102440 74
2009-05-27 07:24:53 51°15.734 2°53.77 13.6 245 12.6 102440 74
2009-05-27 07:24:58 51°15.748 2°53.756 14.4 281 12.6 102440 74
2009-05-27 07:25:03 51°15.761 2°53.742 18 248 12.6 102440 74
2009-05-27 07:25:08 51°15.775 2°53.729 15.5 284 12.6 102440 74
2009-05-27 07:25:13 51°15.788 2°53.715 14.2 245 12.6 102440 74
2009-05-27 07:25:18 51°15.802 2°53.702 15 282 12.6 102460 74
2009-05-27 07:25:23 51°15.816 2°53.688 12.4 243 12.6 102460 74
2009-05-27 07:25:28 51°15.829 2°53.675 15.8 23 12.6 102440 75
2009-05-27 07:25:33 51°15.843 2°53.661 16.1 241 12.6 102440 75
2009-05-27 07:25:38 51°15.856 2°53.648 13.1 20 12.6 102450 75
2009-05-27 07:25:43 51°15.87 2°53.634 16.4 242 12.6 102450 75
2009-05-27 07:25:48 51°15.883 2°53.621 14.2 282 12.6 102450 77
2009-05-27 07:25:53 51°15.897 2°53.608 16.3 244 12.6 102450 77
2009-05-27 07:25:58 51°15.911 2°53.594 18.6 281 12.6 102440 77
2009-05-27 07:26:03 51°15.924 2°53.581 20.4 241 12.6 102440 77
2009-05-27 07:26:08 51°15.938 2°53.568 15 283 12.6 102430 77
2009-05-27 07:26:13 51°15.951 2°53.555 17.8 241 12.6 102430 77
2009-05-27 07:26:18 51°15.965 2°53.541 16.1 283 12.6 102380 76
2009-05-27 07:26:23 51°15.978 2°53.528 18.3 240 12.6 102380 76
2009-05-27 07:26:28 51°15.992 2°53.514 19.2 282 12.6 102410 76
2009-05-27 07:26:33 51°16.005 2°53.501 15.9 242 12.6 102410 76
2009-05-27 07:26:38 51°16.019 2°53.487 13.8 24 12.6 102390 76
2009-05-27 07:26:43 51°16.033 2°53.474 17.9 244 12.6 102390 76
2009-05-27 07:26:48 51°16.047 2°53.46 16.8 280 12.6 102390 77
2009-05-27 07:26:53 51°16.06 2°53.447 14.6 243 12.6 102390 77
2009-05-27 07:26:58 51°16.074 2°53.433 14.3 281 12.6 102390 77
2009-05-27 07:27:03 51°16.088 2°53.419 14.5 242 12.6 102390 77
2009-05-27 07:27:08 51°16.102 2°53.406 15.2 282 12.6 102390 76
2009-05-27 07:27:12 51°16.112 2°53.395 14.7 245 12.6 102390 76
2009-05-27 07:27:18 51°16.129 2°53.379 14.2 279 12.6 102390 76
2009-05-27 07:27:23 51°16.143 2°53.365 14 244 12.6 102390 76
2009-05-27 07:27:28 51°16.157 2°53.351 18 23 12.6 102400 76
2009-05-27 07:27:33 51°16.171 2°53.338 16.3 244 12.6 102400 76
2009-05-27 07:27:38 51°16.184 2°53.324 15.1 25 12.6 102390 75
2009-05-27 07:27:43 51°16.198 2°53.31 17.6 243 12.6 102390 75
2009-05-27 07:27:48 51°16.212 2°53.297 17.9 23 12.6 102400 75
2009-05-27 07:27:53 51°16.226 2°53.283 15.7 244 12.6 102400 75
2009-05-27 07:27:58 51°16.24 2°53.27 14 281 12.6 102400 76
2009-05-27 07:28:03 51°16.254 2°53.256 17.1 243 12.6 102400 76
2009-05-27 07:28:08 51°16.267 2°53.242 12.9 282 12.6 102410 76
2009-05-27 07:28:13 51°16.281 2°53.228 19 244 12.6 102410 76
2009-05-27 07:28:18 51°16.294 2°53.214 16 24 12.6 102390 76
2009-05-27 07:28:23 51°16.308 2°53.2 15 245 12.6 102390 76
2009-05-27 07:28:28 51°16.322 2°53.187 17.9 283 12.6 102400 75
2009-05-27 07:28:33 51°16.335 2°53.173 14.2 247 12.6 102400 75
2009-05-27 07:28:38 51°16.35 2°53.159 14.3 246 12.6 102400 76
2009-05-27 07:28:43 51°16.364 2°53.147 13.5 248 12.6 102400 76
2009-05-27 07:28:48 51°16.377 2°53.134 13.8 280 12.6 102410 76
2009-05-27 07:28:53 51°16.392 2°53.121 12.6 246 12.6 102410 76
2009-05-27 07:28:58 51°16.406 2°53.11 14.3 247 12.5 102400 75
2009-05-27 07:29:03 51°16.42 2°53.097 15.5 248 12.5 102400 75
2009-05-27 07:29:08 51°16.434 2°53.086 12.8 283 12.5 102400 76
2009-05-27 07:29:13 51°16.448 2°53.074 14.1 248 12.5 102400 76
2009-05-27 07:29:18 51°16.462 2°53.063 12.2 281 12.5 102410 76
2009-05-27 07:29:23 51°16.476 2°53.051 14.2 244 12.5 102410 76
2009-05-27 07:29:28 51°16.491 2°53.04 15.7 285 12.6 102410 77
2009-05-27 07:29:33 51°16.505 2°53.029 14.8 242 12.6 102410 77
2009-05-27 07:29:38 51°16.519 2°53.018 14.3 245 12.6 102420 77
2009-05-27 07:29:43 51°16.533 2°53.007 11.8 244 12.6 102420 77
2009-05-27 07:29:48 51°16.548 2°52.995 11.8 245 12.6 102420 77
2009-05-27 07:29:53 51°16.562 2°52.984 12.1 247 12.6 102420 77
2009-05-27 07:29:58 51°16.576 2°52.973 12.4 284 12.6 102410 77
2009-05-27 07:30:03 51°16.591 2°52.962 13.8 245 12.6 102410 77
2009-05-27 07:30:08 51°16.605 2°52.951 12 26 12.6 102410 78
2009-05-27 07:30:12 51°16.617 2°52.942 13.4 244 12.6 102410 78
2009-05-27 07:30:18 51°16.635 2°52.929 12.6 287 12.6 102410 78
2009-05-27 07:30:23 51°16.649 2°52.918 12.2 245 12.6 102410 78
2009-05-27 07:30:28 51°16.664 2°52.907 11.7 23 12.6 102400 77
2009-05-27 07:30:33 51°16.678 2°52.896 14.8 246 12.6 102400 77
2009-05-27 07:30:38 51°16.692 2°52.885 12.9 244 12.6 102410 78
2009-05-27 07:30:43 51°16.707 2°52.874 11.8 242 12.6 102410 78
2009-05-27 07:30:48 51°16.721 2°52.863 14.3 280 12.6 102410 78
2009-05-27 07:30:53 51°16.736 2°52.851 14.5 242 12.6 102410 78
2009-05-27 07:30:58 51°16.75 2°52.84 12.7 24 12.6 102430 78
2009-05-27 07:31:03 51°16.764 2°52.83 12.3 242 12.6 102430 78
2009-05-27 07:31:08 51°16.779 2°52.819 14.3 282 12.6 102410 78
2009-05-27 07:31:13 51°16.793 2°52.808 14.2 243 12.6 102410 78
2009-05-27 07:31:18 51°16.808 2°52.798 13.5 22 12.6 102410 78
2009-05-27 07:31:23 51°16.822 2°52.787 18.1 244 12.6 102410 78
2009-05-27 07:31:28 51°16.836 2°52.777 15.9 283 12.7 102410 79
2009-05-27 07:31:33 51°16.85 2°52.766 13 244 12.7 102410 79
2009-05-27 07:31:38 51°16.865 2°52.755 15.4 21 12.7 102420 79
2009-05-27 07:31:43 51°16.879 2°52.744 16.5 246 12.7 102420 79
2009-05-27 07:31:48 51°16.893 2°52.734 14.6 282 12.6 102400 78
2009-05-27 07:31:53 51°16.908 2°52.723 15.7 246 12.6 102400 78
2009-05-27 07:31:58 51°16.922 2°52.712 13.1 283 12.6 102410 78
2009-05-27 07:32:03 51°16.936 2°52.702 13.8 246 12.6 102410 78
2009-05-27 07:32:08 51°16.95 2°52.69 12.6 20 12.6 102400 78
2009-05-27 07:32:13 51°16.965 2°52.681 11.5 244 12.6 102400 78
2009-05-27 07:32:18 51°16.979 2°52.67 12 283 12.6 102410 77
2009-05-27 07:32:23 51°16.994 2°52.659 12.7 244 12.6 102410 77
2009-05-27 07:32:28 51°17.008 2°52.649 11.6 281 12.6 102410 77
2009-05-27 07:32:33 51°17.022 2°52.638 14.3 239 12.6 102410 77
2009-05-27 07:32:38 51°17.036 2°52.626 11.6 22 12.6 102420 77
2009-05-27 07:32:43 51°17.05 2°52.615 13.3 243 12.6 102420 77
2009-05-27 07:32:48 51°17.065 2°52.605 15.2 23 12.6 102410 77
2009-05-27 07:32:53 51°17.079 2°52.594 12.7 241 12.6 102410 77
2009-05-27 07:32:58 51°17.093 2°52.583 12 287 12.6 102420 78
2009-05-27 07:33:03 51°17.108 2°52.573 12.9 242 12.6 102420 78
2009-05-27 07:33:08 51°17.122 2°52.562 16.4 280 12.5 102410 78
2009-05-27 07:33:12 51°17.133 2°52.553 13.1 242 12.5 102410 78
2009-05-27 07:33:18 51°17.151 2°52.541 15.4 281 12.6 102410 78
2009-05-27 07:33:23 51°17.165 2°52.53 13.1 244 12.6 102410 78
2009-05-27 07:33:28 51°17.179 2°52.519 15.2 282 12.6 102420 79
2009-05-27 07:33:33 51°17.193 2°52.508 14.5 248 12.6 102420 79
2009-05-27 07:33:38 51°17.208 2°52.497 12.8 245 12.6 102400 78
2009-05-27 07:33:43 51°17.223 2°52.486 15.8 244 12.6 102400 78
2009-05-27 07:33:48 51°17.237 2°52.475 13.5 282 12.6 102410 78
2009-05-27 07:33:53 51°17.251 2°52.465 13.3 245 12.6 102410 78
2009-05-27 07:33:58 51°17.266 2°52.454 14.1 281 12.6 102420 78
2009-05-27 07:34:03 51°17.28 2°52.443 11.3 248 12.6 102420 78
2009-05-27 07:34:08 51°17.295 2°52.432 15.1 281 12.6 102410 78
2009-05-27 07:34:13 51°17.309 2°52.421 13.8 243 12.6 102410 78
2009-05-27 07:34:18 51°17.324 2°52.41 14.8 283 12.6 102410 78
2009-05-27 07:34:23 51°17.338 2°52.398 15.6 243 12.6 102410 78
2009-05-27 07:34:28 51°17.351 2°52.385 14 25 12.6 102410 79
2009-05-27 07:34:33 51°17.365 2°52.373 13.8 241 12.6 102410 79
2009-05-27 07:34:38 51°17.379 2°52.359 13.2 25 12.6 102410 79
2009-05-27 07:34:43 51°17.392 2°52.346 18.2 240 12.6 102410 79
2009-05-27 07:34:48 51°17.405 2°52.333 15.6 283 12.6 102410 79
2009-05-27 07:34:53 51°17.418 2°52.319 16.7 242 12.6 102410 79
2009-05-27 07:34:58 51°17.432 2°52.305 13.3 285 12.6 102410 78
2009-05-27 07:35:03 51°17.444 2°52.291 13.6 241 12.6 102410 78
2009-05-27 07:35:08 51°17.457 2°52.277 13.8 282 12.5 102400 77
2009-05-27 07:35:13 51°17.47 2°52.262 13.7 31 12.5 102400 77
2009-05-27 07:35:18 51°17.483 2°52.247 15.2 280 12.5 102380 77
2009-05-27 07:35:23 51°17.496 2°52.233 14.7 243 12.5 102380 77
2009-05-27 07:35:28 51°17.509 2°52.218 16.8 280 12.5 102400 77
2009-05-27 07:35:33 51°17.522 2°52.203 17 244 12.5 102400 77
2009-05-27 07:35:38 51°17.535 2°52.189 16.2 25 12.5 102410 77
2009-05-27 07:35:43 51°17.547 2°52.174 12.1 241 12.5 102410 77
2009-05-27 07:35:48 51°17.56 2°52.16 12.8 282 12.5 102400 77
2009-05-27 07:35:53 51°17.573 2°52.144 13.7 238 12.5 102400 77
2009-05-27 07:35:58 51°17.586 2°52.13 18.9 284 12.5 102400 77
2009-05-27 07:36:03 51°17.599 2°52.116 15 241 12.5 102400 77
2009-05-27 07:36:08 51°17.613 2°52.101 14.4 285 12.5 102410 78
2009-05-27 07:36:12 51°17.623 2°52.09 13.2 241 12.5 102410 78
2009-05-27 07:36:18 51°17.639 2°52.074 17.5 281 12.6 102410 79
2009-05-27 07:36:23 51°17.651 2°52.059 15.5 238 12.6 102410 79
2009-05-27 07:36:28 51°17.664 2°52.044 13.5 279 12.6 102400 78
2009-05-27 07:36:33 51°17.677 2°52.029 13.2 238 12.6 102400 78
2009-05-27 07:36:38 51°17.69 2°52.015 12.2 23 12.6 102420 78
2009-05-27 07:36:43 51°17.702 2°52.001 19.3 242 12.6 102420 78
2009-05-27 07:36:48 51°17.715 2°51.986 13.6 25 12.6 102400 78
2009-05-27 07:36:53 51°17.728 2°51.972 16.7 244 12.6 102400 78
2009-05-27 07:36:58 51°17.741 2°51.957 14.1 283 12.6 102400 78
2009-05-27 07:37:03 51°17.754 2°51.943 12.8 244 12.6 102400 78
2009-05-27 07:37:08 51°17.767 2°51.929 16.7 282 12.6 102400 79
2009-05-27 07:37:13 51°17.78 2°51.914 15.8 247 12.6 102400 79
2009-05-27 07:37:18 51°17.793 2°51.9 12.1 282 12.6 102410 78
2009-05-27 07:37:23 51°17.805 2°51.885 11.7 245 12.6 102410 78
2009-05-27 07:37:28 51°17.819 2°51.87 17.3 279 12.6 102410 78
2009-05-27 07:37:33 51°17.831 2°51.856 13.3 243 12.6 102410 78
2009-05-27 07:37:38 51°17.844 2°51.841 16.9 22 12.5 102400 77
2009-05-27 07:37:43 51°17.857 2°51.827 13.1 243 12.5 102400 77
2009-05-27 07:37:48 51°17.871 2°51.812 11.6 279 12.5 102420 78
2009-05-27 07:37:53 51°17.884 2°51.797 11.3 239 12.5 102420 78
2009-05-27 07:37:58 51°17.897 2°51.784 14.4 22 12.5 102410 78
2009-05-27 07:38:03 51°17.91 2°51.769 17.4 240 12.5 102410 78
2009-05-27 07:38:08 51°17.923 2°51.754 11.8 281 12.6 102410 79
2009-05-27 07:38:13 51°17.936 2°51.739 11.5 240 12.6 102410 79
2009-05-27 07:38:18 51°17.949 2°51.725 16.5 281 12.6 102410 80
2009-05-27 07:38:23 51°17.962 2°51.711 13.4 239 12.6 102410 80
2009-05-27 07:38:28 51°17.976 2°51.698 17.8 282 12.6 102400 80
2009-05-27 07:38:33 51°17.988 2°51.682 17.3 240 12.6 102400 80
2009-05-27 07:38:38 51°18.001 2°51.668 16.8 22 12.6 102400 80
2009-05-27 07:38:43 51°18.014 2°51.653 12.1 242 12.6 102400 80
2009-05-27 07:38:48 51°18.027 2°51.638 13.5 281 12.6 102400 80
2009-05-27 07:38:53 51°18.04 2°51.624 14.3 240 12.6 102400 80
2009-05-27 07:38:58 51°18.053 2°51.609 13.6 282 12.6 102390 79
2009-05-27 07:39:03 51°18.067 2°51.595 13 243 12.6 102390 79
2009-05-27 07:39:08 51°18.08 2°51.581 12.9 19 12.6 102400 78
2009-05-27 07:39:12 51°18.091 2°51.569 13.7 238 12.6 102400 78
2009-05-27 07:39:18 51°18.106 2°51.551 17.5 283 12.6 102410 78
2009-05-27 07:39:23 51°18.119 2°51.537 16 244 12.6 102410 78
2009-05-27 07:39:28 51°18.133 2°51.522 16.7 24 12.6 102400 79
2009-05-27 07:39:33 51°18.146 2°51.508 17.2 245 12.6 102400 79
2009-05-27 07:39:38 51°18.159 2°51.494 14.9 22 12.6 102460 79
2009-05-27 07:39:43 51°18.172 2°51.478 12.4 247 12.6 102460 79
2009-05-27 07:39:48 51°18.185 2°51.463 11.8 278 12.6 102460 79
2009-05-27 07:39:53 51°18.198 2°51.448 15.2 245 12.6 102460 79
2009-05-27 07:39:58 51°18.211 2°51.433 12.8 281 12.6 102410 79
2009-05-27 07:40:03 51°18.224 2°51.418 17.4 245 12.6 102410 79
2009-05-27 07:40:08 51°18.237 2°51.403 17 282 12.6 102400 79
2009-05-27 07:40:13 51°18.251 2°51.389 13.1 249 12.6 102400 79
2009-05-27 07:40:18 51°18.264 2°51.373 13.6 25 12.6 102400 80
2009-05-27 07:40:23 51°18.277 2°51.359 14.5 242 12.6 102400 80
2009-05-27 07:40:28 51°18.29 2°51.343 16 283 12.6 102410 80
2009-05-27 07:40:33 51°18.303 2°51.328 14.2 245 12.6 102410 80
2009-05-27 07:40:38 51°18.317 2°51.312 16.6 26 12.6 102400 79
2009-05-27 07:40:43 51°18.33 2°51.297 16.1 240 12.6 102400 79
2009-05-27 07:40:48 51°18.342 2°51.282 17.6 281 12.6 102410 80
2009-05-27 07:40:53 51°18.356 2°51.268 16.5 242 12.6 102410 80
2009-05-27 07:40:58 51°18.369 2°51.253 16.7 283 12.6 102400 80
2009-05-27 07:41:03 51°18.382 2°51.238 13.1 242 12.6 102400 80
2009-05-27 07:41:08 51°18.395 2°51.223 17 22 12.6 102410 80
2009-05-27 07:41:13 51°18.408 2°51.208 15.3 241 12.6 102410 80
2009-05-27 07:41:18 51°18.421 2°51.192 12.9 280 12.6 102410 79
2009-05-27 07:41:23 51°18.434 2°51.178 16.3 244 12.6 102410 79
2009-05-27 07:41:28 51°18.447 2°51.163 16 280 12.6 102400 80
2009-05-27 07:41:33 51°18.46 2°51.148 16.6 244 12.6 102400 80
2009-05-27 07:41:38 51°18.473 2°51.133 13.7 244 12.6 102400 80
2009-05-27 07:41:43 51°18.487 2°51.118 13.7 243 12.6 102400 80
2009-05-27 07:41:48 51°18.5 2°51.103 15.5 23 12.6 102400 80
2009-05-27 07:41:53 51°18.513 2°51.088 12.7 239 12.6 102400 80
2009-05-27 07:41:58 51°18.526 2°51.073 14.5 284 12.6 102400 81
2009-05-27 07:42:03 51°18.539 2°51.058 14.3 241 12.6 102400 81
2009-05-27 07:42:08 51°18.552 2°51.043 13.5 278 12.6 102390 80
2009-05-27 07:42:12 51°18.563 2°51.03 13.8 241 12.6 102390 80
2009-05-27 07:42:18 51°18.578 2°51.012 16.3 280 12.6 102400 80
2009-05-27 07:42:23 51°18.592 2°50.997 15.5 243 12.6 102400 80
2009-05-27 07:42:28 51°18.605 2°50.982 12.2 284 12.6 102400 80
2009-05-27 07:42:33 51°18.618 2°50.966 12.3 239 12.6 102400 80
2009-05-27 07:42:38 51°18.631 2°50.951 15.6 23 12.6 102400 81
2009-05-27 07:42:43 51°18.644 2°50.936 16.8 240 12.6 102400 81
2009-05-27 07:42:48 51°18.657 2°50.922 14.1 277 12.6 102380 80
2009-05-27 07:42:53 51°18.67 2°50.907 13.4 240 12.6 102380 80
2009-05-27 07:42:58 51°18.683 2°50.892 13.9 281 12.6 102400 80
2009-05-27 07:43:03 51°18.696 2°50.876 15.5 238 12.6 102400 80
2009-05-27 07:43:08 51°18.709 2°50.861 15.3 286 12.6 102410 80
2009-05-27 07:43:13 51°18.723 2°50.847 13.4 240 12.6 102410 80
2009-05-27 07:43:18 51°18.735 2°50.832 14.6 282 12.6 102400 79
2009-05-27 07:43:23 51°18.749 2°50.816 15.1 242 12.6 102400 79
2009-05-27 07:43:28 51°18.761 2°50.801 13.1 24 12.6 102400 80
2009-05-27 07:43:33 51°18.775 2°50.786 16.4 240 12.6 102400 80
2009-05-27 07:43:38 51°18.787 2°50.77 15.7 22 12.6 102390 80
2009-05-27 07:43:43 51°18.801 2°50.755 13.2 242 12.6 102390 80
2009-05-27 07:43:48 51°18.814 2°50.739 16.8 283 12.6 102390 80
2009-05-27 07:43:53 51°18.827 2°50.723 14.5 238 12.6 102390 80
2009-05-27 07:43:58 51°18.84 2°50.708 15.6 286 12.6 102390 80
2009-05-27 07:44:03 51°18.853 2°50.693 14.2 239 12.6 102390 80
2009-05-27 07:44:08 51°18.866 2°50.678 12.8 286 12.6 102380 80
2009-05-27 07:44:13 51°18.879 2°50.662 14.8 239 12.6 102380 80
2009-05-27 07:44:18 51°18.893 2°50.648 16.3 280 12.6 102390 80
2009-05-27 07:44:23 51°18.906 2°50.633 14.3 241 12.6 102390 80
2009-05-27 07:44:28 51°18.919 2°50.618 13.2 282 12.5 102390 80
2009-05-27 07:44:33 51°18.932 2°50.603 14.8 243 12.5 102390 80
2009-05-27 07:44:38 51°18.945 2°50.587 15.6 24 12.5 102400 80
2009-05-27 07:44:43 51°18.958 2°50.572 15.4 242 12.5 102400 80
2009-05-27 07:44:48 51°18.971 2°50.557 12.1 279 12.5 102390 80
2009-05-27 07:44:53 51°18.985 2°50.542 12.8 241 12.5 102390 80
2009-05-27 07:44:58 51°18.998 2°50.527 12.9 278 12.5 102400 80
2009-05-27 07:45:03 51°19.011 2°50.512 16.1 240 12.5 102400 80
2009-05-27 07:45:08 51°19.024 2°50.497 14.4 281 12.5 102390 80
2009-05-27 07:45:12 51°19.035 2°50.484 14.4 240 12.5 102390 80
2009-05-27 07:45:18 51°19.05 2°50.467 15.9 280 12.5 102400 81
2009-05-27 07:45:23 51°19.063 2°50.452 12 241 12.5 102400 81
2009-05-27 07:45:28 51°19.076 2°50.438 13.9 280 12.5 102390 81
2009-05-27 07:45:33 51°19.09 2°50.424 14.7 244 12.5 102390 81
2009-05-27 07:45:38 51°19.102 2°50.409 13.6 23 12.5 102390 80
2009-05-27 07:45:43 51°19.115 2°50.394 13.1 238 12.5 102390 80
2009-05-27 07:45:48 51°19.128 2°50.379 13.4 283 12.5 102390 80
2009-05-27 07:45:53 51°19.141 2°50.364 15.2 32 12.5 102390 80
2009-05-27 07:45:58 51°19.154 2°50.348 13.5 285 12.5 102390 80
2009-05-27 07:46:03 51°19.167 2°50.333 13.5 239 12.5 102390 80
2009-05-27 07:46:08 51°19.18 2°50.318 14.7 284 12.5 102390 81
2009-05-27 07:46:13 51°19.194 2°50.302 15 240 12.5 102390 81
2009-05-27 07:46:18 51°19.206 2°50.286 15.3 281 12.6 102390 82
2009-05-27 07:46:23 51°19.22 2°50.271 15.2 238 12.6 102390 82
2009-05-27 07:46:28 51°19.233 2°50.255 15.6 283 12.5 102400 81
2009-05-27 07:46:33 51°19.246 2°50.24 16.9 237 12.5 102400 81
2009-05-27 07:46:38 51°19.259 2°50.225 17.3 23 12.5 102390 80
2009-05-27 07:46:43 51°19.272 2°50.21 18.6 239 12.5 102390 80
2009-05-27 07:46:48 51°19.285 2°50.195 17.2 280 12.5 102380 80
2009-05-27 07:46:53 51°19.298 2°50.18 15.5 239 12.5 102380 80
2009-05-27 07:46:58 51°19.311 2°50.166 17 26 12.5 102390 80
2009-05-27 07:47:03 51°19.324 2°50.15 19.8 242 12.5 102390 80
2009-05-27 07:47:08 51°19.336 2°50.135 18.3 283 12.5 102400 79
2009-05-27 07:47:13 51°19.349 2°50.12 19.1 35 12.5 102400 79
2009-05-27 07:47:18 51°19.362 2°50.104 16.6 23 12.5 102380 78
2009-05-27 07:47:23 51°19.375 2°50.089 14.9 238 12.5 102380 78
2009-05-27 07:47:28 51°19.388 2°50.074 16.4 283 12.4 102360 78
2009-05-27 07:47:33 51°19.401 2°50.058 14.4 239 12.4 102360 78
2009-05-27 07:47:38 51°19.414 2°50.043 16.4 24 12.5 102380 79
2009-05-27 07:47:43 51°19.428 2°50.027 19.3 236 12.5 102380 79
2009-05-27 07:47:48 51°19.441 2°50.012 15.2 25 12.5 102370 79
2009-05-27 07:47:53 51°19.454 2°49.996 14.3 241 12.5 102370 79
2009-05-27 07:47:58 51°19.468 2°49.981 14.4 283 12.5 102370 80
2009-05-27 07:48:03 51°19.481 2°49.966 16.7 35 12.5 102370 80
2009-05-27 07:48:08 51°19.495 2°49.951 16 23 12.5 102380 80
2009-05-27 07:48:13 51°19.508 2°49.935 18.3 34 12.5 102380 80
2009-05-27 07:48:18 51°19.522 2°49.921 15 283 12.5 102370 79
2009-05-27 07:48:23 51°19.535 2°49.905 16.3 235 12.5 102370 79
2009-05-27 07:48:28 51°19.548 2°49.891 19.8 283 12.5 102370 79
2009-05-27 07:48:33 51°19.562 2°49.876 18.7 32 12.5 102370 79
2009-05-27 07:48:38 51°19.575 2°49.861 15.7 24 12.5 102370 78
2009-05-27 07:48:43 51°19.588 2°49.846 16.6 237 12.5 102370 78
2009-05-27 07:48:48 51°19.602 2°49.831 17.5 283 12.5 102370 78
2009-05-27 07:48:53 51°19.614 2°49.815 17.2 239 12.5 102370 78
2009-05-27 07:48:58 51°19.628 2°49.8 20.1 285 12.5 102360 77
2009-05-27 07:49:03 51°19.641 2°49.784 15.7 32 12.5 102360 77
2009-05-27 07:49:08 51°19.655 2°49.77 17.3 280 12.5 102360 77
2009-05-27 07:49:13 51°19.668 2°49.754 15.9 237 12.5 102360 77
2009-05-27 07:49:18 51°19.681 2°49.739 16.4 25 12.5 102370 76
2009-05-27 07:49:23 51°19.694 2°49.724 15.7 32 12.5 102370 76
2009-05-27 07:49:28 51°19.707 2°49.709 14.9 284 12.4 102370 76
2009-05-27 07:49:33 51°19.72 2°49.693 14.3 31 12.4 102370 76
2009-05-27 07:49:38 51°19.734 2°49.679 16.8 22 12.4 102360 77
2009-05-27 07:49:43 51°19.747 2°49.664 17.4 238 12.4 102360 77
2009-05-27 07:49:48 51°19.76 2°49.649 15.9 281 12.5 102380 78
2009-05-27 07:49:53 51°19.773 2°49.634 16.1 236 12.5 102380 78
2009-05-27 07:49:58 51°19.786 2°49.618 16.8 283 12.5 102360 79
2009-05-27 07:50:03 51°19.8 2°49.603 13.3 34 12.5 102360 79
2009-05-27 07:50:08 51°19.813 2°49.587 17.7 285 12.5 102380 77
2009-05-27 07:50:13 51°19.826 2°49.572 18.6 237 12.5 102380 77
2009-05-27 07:50:18 51°19.839 2°49.557 19.8 283 12.5 102360 77
2009-05-27 07:50:23 51°19.852 2°49.542 16.4 239 12.5 102360 77
2009-05-27 07:50:28 51°19.866 2°49.526 15.2 283 12.5 102360 77
2009-05-27 07:50:33 51°19.879 2°49.512 17 32 12.5 102360 77
2009-05-27 07:50:38 51°19.892 2°49.497 14.6 22 12.5 102370 77
2009-05-27 07:50:43 51°19.905 2°49.481 15.7 33 12.5 102370 77
2009-05-27 07:50:48 51°19.918 2°49.467 15.5 283 12.5 102360 75
2009-05-27 07:50:53 51°19.931 2°49.452 18.1 236 12.5 102360 75
2009-05-27 07:50:58 51°19.944 2°49.437 15.7 280 12.4 102360 75
2009-05-27 07:51:03 51°19.957 2°49.422 18.6 240 12.4 102360 75
2009-05-27 07:51:08 51°19.97 2°49.407 14.8 281 12.4 102370 74
2009-05-27 07:51:13 51°19.983 2°49.392 17.3 239 12.4 102370 74
2009-05-27 07:51:18 51°19.995 2°49.377 16.7 24 12.4 102390 75
2009-05-27 07:51:23 51°20.009 2°49.362 16.4 237 12.4 102390 75
2009-05-27 07:51:28 51°20.021 2°49.347 12.9 25 12.4 102390 75
2009-05-27 07:51:32 51°20.031 2°49.335 17.2 241 12.4 102390 75
2009-05-27 07:51:38 51°20.047 2°49.317 17.3 24 12.4 102380 75
2009-05-27 07:51:43 51°20.06 2°49.303 17.8 240 12.4 102380 75
2009-05-27 07:51:48 51°20.072 2°49.287 15.4 279 12.5 102380 76
2009-05-27 07:51:53 51°20.085 2°49.272 17.4 240 12.5 102380 76
2009-05-27 07:51:58 51°20.098 2°49.257 16.8 26 12.5 102370 76
2009-05-27 07:52:03 51°20.11 2°49.242 18.4 238 12.5 102370 76
2009-05-27 07:52:08 51°20.123 2°49.227 18.1 24 12.5 102360 76
2009-05-27 07:52:13 51°20.135 2°49.212 16.4 238 12.5 102360 76
2009-05-27 07:52:18 51°20.148 2°49.197 18.9 21 12.5 102370 75
2009-05-27 07:52:23 51°20.16 2°49.181 15.5 241 12.5 102370 75
2009-05-27 07:52:28 51°20.173 2°49.165 15.9 26 12.5 102370 74
2009-05-27 07:52:33 51°20.186 2°49.15 13.9 240 12.5 102370 74
2009-05-27 07:52:38 51°20.199 2°49.135 15.4 26 12.5 102370 75
2009-05-27 07:52:43 51°20.212 2°49.119 16.8 242 12.5 102370 75
2009-05-27 07:52:48 51°20.226 2°49.104 16 23 12.5 102360 75
2009-05-27 07:52:53 51°20.238 2°49.089 16.7 239 12.5 102360 75
2009-05-27 07:52:58 51°20.252 2°49.074 15.7 23 12.5 102370 75
2009-05-27 07:53:03 51°20.265 2°49.058 15.3 238 12.5 102370 75
2009-05-27 07:53:08 51°20.278 2°49.043 14.5 23 12.5 102370 75
2009-05-27 07:53:13 51°20.291 2°49.026 16.8 239 12.5 102370 75
2009-05-27 07:53:18 51°20.304 2°49.011 16.2 21 12.5 102390 75
2009-05-27 07:53:23 51°20.317 2°48.996 17.8 241 12.5 102390 75
2009-05-27 07:53:28 51°20.33 2°48.981 17.5 23 12.5 102380 75
2009-05-27 07:53:32 51°20.34 2°48.969 18.4 241 12.5 102380 75
2009-05-27 07:53:38 51°20.356 2°48.95 19.2 23 12.5 102370 74
2009-05-27 07:53:43 51°20.369 2°48.935 14.9 239 12.5 102370 74
2009-05-27 07:53:48 51°20.382 2°48.92 17 283 12.5 102360 75
2009-05-27 07:53:53 51°20.395 2°48.904 14 242 12.5 102360 75
2009-05-27 07:53:58 51°20.408 2°48.888 16.1 25 12.5 102380 74
2009-05-27 07:54:03 51°20.421 2°48.873 14 241 12.5 102380 74
2009-05-27 07:54:08 51°20.434 2°48.858 16.3 22 12.5 102380 75
2009-05-27 07:54:13 51°20.447 2°48.842 15.9 240 12.5 102380 75
2009-05-27 07:54:18 51°20.46 2°48.826 13.6 24 12.5 102380 74
2009-05-27 07:54:23 51°20.473 2°48.81 14.2 239 12.5 102380 74
2009-05-27 07:54:28 51°20.486 2°48.794 16.4 282 12.5 102370 74
2009-05-27 07:54:33 51°20.499 2°48.778 17.1 244 12.5 102370 74
2009-05-27 07:54:38 51°20.512 2°48.762 14.8 20 12.5 102370 74
2009-05-27 07:54:43 51°20.525 2°48.746 15.2 241 12.5 102370 74
2009-05-27 07:54:48 51°20.538 2°48.731 14 24 12.5 102370 75
2009-05-27 07:54:53 51°20.551 2°48.714 14.4 241 12.5 102370 75
2009-05-27 07:54:58 51°20.564 2°48.698 13.9 26 12.5 102370 74
2009-05-27 07:55:03 51°20.577 2°48.682 15.6 240 12.5 102370 74
2009-05-27 07:55:08 51°20.589 2°48.666 13.8 22 12.5 102370 74
2009-05-27 07:55:13 51°20.602 2°48.65 17.6 237 12.5 102370 74
2009-05-27 07:55:18 51°20.615 2°48.634 15.7 23 12.5 102380 75
2009-05-27 07:55:23 51°20.628 2°48.617 14.9 235 12.5 102380 75
2009-05-27 07:55:28 51°20.641 2°48.602 13.4 25 12.5 102380 76
2009-05-27 07:55:33 51°20.654 2°48.586 13.2 31 12.5 102380 76
2009-05-27 07:55:38 51°20.666 2°48.57 14.6 21 12.6 102370 76
2009-05-27 07:55:43 51°20.68 2°48.555 15.4 239 12.6 102370 76
2009-05-27 07:55:48 51°20.693 2°48.539 16.1 25 12.6 102370 76
2009-05-27 07:55:53 51°20.706 2°48.523 14.1 238 12.6 102370 76
2009-05-27 07:55:58 51°20.719 2°48.507 13.8 24 12.5 102370 76
2009-05-27 07:56:03 51°20.732 2°48.492 16.9 239 12.5 102370 76
2009-05-27 07:56:08 51°20.745 2°48.478 15.7 27 12.5 102360 76
2009-05-27 07:56:13 51°20.758 2°48.464 16.1 241 12.5 102360 76
2009-05-27 07:56:18 51°20.771 2°48.449 16.1 23 12.5 102370 76
2009-05-27 07:56:23 51°20.783 2°48.433 15.6 32 12.5 102370 76
2009-05-27 07:56:28 51°20.796 2°48.419 17.4 281 12.5 102370 76
2009-05-27 07:56:33 51°20.809 2°48.402 13.5 241 12.5 102370 76
2009-05-27 07:56:38 51°20.822 2°48.388 15.9 25 12.6 102370 77
2009-05-27 07:56:43 51°20.835 2°48.373 17.6 237 12.6 102370 77
2009-05-27 07:56:48 51°20.848 2°48.357 17.1 281 12.6 102370 77
2009-05-27 07:56:53 51°20.861 2°48.342 16.3 240 12.6 102370 77
2009-05-27 07:56:58 51°20.874 2°48.326 15.6 25 12.5 102370 76
2009-05-27 07:57:03 51°20.887 2°48.31 15.3 236 12.5 102370 76
2009-05-27 07:57:08 51°20.9 2°48.295 15.1 22 12.5 102380 76
2009-05-27 07:57:13 51°20.913 2°48.279 15.7 240 12.5 102380 76
2009-05-27 07:57:18 51°20.926 2°48.264 18.5 25 12.5 102370 75
2009-05-27 07:57:23 51°20.939 2°48.248 14.2 241 12.5 102370 75
2009-05-27 07:57:28 51°20.952 2°48.232 13.9 25 12.5 102360 76
2009-05-27 07:57:33 51°20.965 2°48.217 15.4 237 12.5 102360 76
2009-05-27 07:57:38 51°20.978 2°48.202 16.3 22 12.5 102370 75
2009-05-27 07:57:43 51°20.991 2°48.187 15.6 238 12.5 102370 75
2009-05-27 07:57:48 51°21.004 2°48.172 18.4 23 12.5 102370 76
2009-05-27 07:57:53 51°21.017 2°48.157 14.5 238 12.5 102370 76
2009-05-27 07:57:58 51°21.03 2°48.142 16.2 284 12.6 102380 76
2009-05-27 07:58:03 51°21.043 2°48.127 14.7 242 12.6 102380 76
2009-05-27 07:58:08 51°21.056 2°48.112 16.8 244 12.5 102370 76
2009-05-27 07:58:13 51°21.069 2°48.096 18.3 243 12.5 102370 76
2009-05-27 07:58:18 51°21.082 2°48.081 14.7 27 12.5 102380 76
2009-05-27 07:58:23 51°21.095 2°48.065 16.9 242 12.5 102380 76
2009-05-27 07:58:28 51°21.108 2°48.05 15.9 23 12.5 102370 75
2009-05-27 07:58:33 51°21.122 2°48.034 17.9 242 12.5 102370 75
2009-05-27 07:58:38 51°21.135 2°48.019 16.4 20 12.5 102370 75
2009-05-27 07:58:43 51°21.148 2°48.004 15.1 245 12.5 102370 75
2009-05-27 07:58:48 51°21.161 2°47.987 14.4 277 12.5 102380 75
2009-05-27 07:58:52 51°21.172 2°47.976 13.5 242 12.5 102380 75
2009-05-27 07:58:58 51°21.187 2°47.957 17.3 26 12.5 102380 75
2009-05-27 07:59:03 51°21.201 2°47.941 15.1 242 12.5 102380 75
2009-05-27 07:59:08 51°21.214 2°47.925 13.8 284 12.5 102370 75
2009-05-27 07:59:13 51°21.227 2°47.91 14.1 240 12.5 102370 75
2009-05-27 07:59:18 51°21.24 2°47.893 15.1 21 12.5 102390 75
2009-05-27 07:59:23 51°21.253 2°47.877 14.5 34 12.5 102390 75
2009-05-27 07:59:28 51°21.266 2°47.861 17.1 23 12.5 102370 75
2009-05-27 07:59:33 51°21.279 2°47.844 15.9 31 12.5 102370 75
2009-05-27 07:59:38 51°21.292 2°47.828 15.6 20 12.5 102370 76
2009-05-27 07:59:43 51°21.305 2°47.811 16.5 34 12.5 102370 76
2009-05-27 07:59:48 51°21.317 2°47.794 14.7 26 12.5 102390 77
2009-05-27 07:59:53 51°21.329 2°47.776 15.6 31 12.5 102390 77
2009-05-27 07:59:58 51°21.342 2°47.759 16.2 22 12.5 102370 76
2009-05-27 08:00:03 51°21.354 2°47.742 13.2 238 12.5 102370 76
2009-05-27 08:00:08 51°21.366 2°47.724 15.9 25 12.5 102380 76
2009-05-27 08:00:13 51°21.379 2°47.706 16.3 34 12.5 102380 76
2009-05-27 08:00:18 51°21.392 2°47.689 14.2 285 12.5 102380 76
2009-05-27 08:00:23 51°21.404 2°47.671 13.9 237 12.5 102380 76
2009-05-27 08:00:28 51°21.417 2°47.653 14.3 21 12.5 102360 77
2009-05-27 08:00:33 51°21.429 2°47.636 16.5 237 12.5 102360 77
2009-05-27 08:00:38 51°21.441 2°47.617 14.2 24 12.6 102380 77
2009-05-27 08:00:43 51°21.454 2°47.599 12.8 31 12.6 102380 77
2009-05-27 08:00:48 51°21.466 2°47.58 14.2 23 12.6 102370 77
2009-05-27 08:00:53 51°21.478 2°47.561 12.7 33 12.6 102370 77
2009-05-27 08:00:58 51°21.489 2°47.541 15.6 23 12.6 102380 77
2009-05-27 08:01:03 51°21.501 2°47.522 15.9 33 12.6 102380 77
2009-05-27 08:01:08 51°21.512 2°47.503 15 282 12.6 102390 77
2009-05-27 08:01:13 51°21.524 2°47.484 17.7 237 12.6 102390 77
2009-05-27 08:01:18 51°21.536 2°47.466 15.6 26 12.6 102370 78
2009-05-27 08:01:23 51°21.547 2°47.447 15 237 12.6 102370 78
2009-05-27 08:01:28 51°21.56 2°47.429 15 283 12.6 102370 78
2009-05-27 08:01:33 51°21.572 2°47.412 16.1 242 12.6 102370 78
2009-05-27 08:01:38 51°21.585 2°47.396 17 26 12.6 102360 78
2009-05-27 08:01:43 51°21.598 2°47.38 14.5 241 12.6 102360 78
2009-05-27 08:01:48 51°21.612 2°47.365 15.7 25 12.6 102380 77
2009-05-27 08:01:52 51°21.623 2°47.353 14.9 241 12.6 102380 77
2009-05-27 08:01:58 51°21.64 2°47.337 16.2 21 12.6 102360 77
2009-05-27 08:02:03 51°21.653 2°47.323 14.2 243 12.6 102360 77
2009-05-27 08:02:08 51°21.668 2°47.312 12.4 24 12.5 102380 77
2009-05-27 08:02:13 51°21.682 2°47.298 14.7 246 12.5 102380 77
2009-05-27 08:02:18 51°21.696 2°47.286 15.3 283 12.5 102380 77
2009-05-27 08:02:23 51°21.71 2°47.274 17.5 241 12.5 102380 77
2009-05-27 08:02:28 51°21.724 2°47.261 13.1 24 12.5 102380 77
2009-05-27 08:02:33 51°21.739 2°47.249 16.1 242 12.5 102380 77
2009-05-27 08:02:38 51°21.753 2°47.237 14 20 12.5 102380 77
2009-05-27 08:02:43 51°21.768 2°47.225 14.9 243 12.5 102380 77
2009-05-27 08:02:48 51°21.782 2°47.213 14.7 283 12.6 102390 78
2009-05-27 08:02:53 51°21.797 2°47.201 13.4 243 12.6 102390 78
2009-05-27 08:02:58 51°21.812 2°47.19 16.3 23 12.5 102390 78
2009-05-27 08:03:03 51°21.826 2°47.18 17.3 248 12.5 102390 78
2009-05-27 08:03:08 51°21.841 2°47.168 14.5 282 12.5 102390 77
2009-05-27 08:03:13 51°21.855 2°47.156 13.8 245 12.5 102390 77
2009-05-27 08:03:18 51°21.87 2°47.143 16 25 12.5 102370 77
2009-05-27 08:03:23 51°21.884 2°47.132 14.8 247 12.5 102370 77
2009-05-27 08:03:28 51°21.899 2°47.119 14.4 285 12.5 102380 77
2009-05-27 08:03:33 51°21.913 2°47.108 16.8 245 12.5 102380 77
2009-05-27 08:03:38 51°21.927 2°47.094 14.2 247 12.5 102400 77
2009-05-27 08:03:43 51°21.942 2°47.083 13.1 248 12.5 102400 77
2009-05-27 08:03:48 51°21.955 2°47.07 13.2 285 12.5 102390 78
2009-05-27 08:03:53 51°21.969 2°47.057 12.1 243 12.5 102390 78
2009-05-27 08:03:58 51°21.984 2°47.045 14.6 25 12.5 102380 77
2009-05-27 08:04:03 51°21.999 2°47.032 10.2 242 12.5 102380 77
2009-05-27 08:04:08 51°22.014 2°47.022 10.1 26 12.5 102390 78
2009-05-27 08:04:13 51°22.028 2°47.009 12.4 246 12.5 102390 78
2009-05-27 08:04:18 51°22.043 2°46.999 11.5 245 12.5 102400 78
2009-05-27 08:04:23 51°22.057 2°46.987 14.4 243 12.5 102400 78
2009-05-27 08:04:28 51°22.072 2°46.976 11.7 25 12.6 102400 79
2009-05-27 08:04:33 51°22.086 2°46.964 14.3 241 12.6 102400 79
2009-05-27 08:04:38 51°22.101 2°46.954 15.5 22 12.6 102410 80
2009-05-27 08:04:43 51°22.115 2°46.942 15.5 243 12.6 102410 80
2009-05-27 08:04:48 51°22.129 2°46.931 14.1 24 12.6 102400 79
2009-05-27 08:04:52 51°22.141 2°46.922 16.8 244 12.6 102400 79
2009-05-27 08:04:58 51°22.158 2°46.909 14.6 282 12.6 102410 80
2009-05-27 08:05:03 51°22.173 2°46.898 15.9 247 12.6 102410 80
2009-05-27 08:05:08 51°22.188 2°46.886 14.8 21 12.6 102390 79
2009-05-27 08:05:13 51°22.202 2°46.875 13.9 242 12.6 102390 79
2009-05-27 08:05:18 51°22.217 2°46.864 14 21 12.6 102380 79
2009-05-27 08:05:23 51°22.232 2°46.852 11.9 244 12.6 102380 79
2009-05-27 08:05:28 51°22.246 2°46.841 13.7 281 12.5 102380 78
2009-05-27 08:05:33 51°22.26 2°46.83 14.6 244 12.5 102380 78
2009-05-27 08:05:38 51°22.275 2°46.818 11.3 247 12.5 102410 78
2009-05-27 08:05:43 51°22.289 2°46.808 15.1 244 12.5 102410 78
2009-05-27 08:05:48 51°22.304 2°46.796 11.8 281 12.5 102400 78
2009-05-27 08:05:53 51°22.318 2°46.785 13.2 245 12.5 102400 78
2009-05-27 08:05:58 51°22.332 2°46.774 14.8 23 12.5 102400 78
2009-05-27 08:06:03 51°22.347 2°46.763 12.2 242 12.5 102400 78
2009-05-27 08:06:08 51°22.361 2°46.752 15.2 25 12.5 102410 79
2009-05-27 08:06:13 51°22.375 2°46.74 12.9 244 12.5 102410 79
2009-05-27 08:06:18 51°22.389 2°46.73 14.1 24 12.6 102410 79
2009-05-27 08:06:23 51°22.404 2°46.718 12.8 242 12.6 102410 79
2009-05-27 08:06:28 51°22.418 2°46.707 12.7 25 12.6 102400 80
2009-05-27 08:06:33 51°22.432 2°46.696 17.1 244 12.6 102400 80
2009-05-27 08:06:38 51°22.446 2°46.685 13.5 25 12.6 102390 79
2009-05-27 08:06:43 51°22.461 2°46.673 14.7 242 12.6 102390 79
2009-05-27 08:06:48 51°22.474 2°46.66 13.9 20 12.6 102400 79
2009-05-27 08:06:53 51°22.488 2°46.647 14 238 12.6 102400 79
2009-05-27 08:06:58 51°22.502 2°46.634 13.5 278 12.6 102400 79
2009-05-27 08:07:03 51°22.515 2°46.62 15.3 239 12.6 102400 79
2009-05-27 08:07:08 51°22.529 2°46.607 14.6 26 12.5 102390 79
2009-05-27 08:07:13 51°22.542 2°46.592 15.7 240 12.5 102390 79
2009-05-27 08:07:18 51°22.556 2°46.578 13.6 23 12.5 102400 79
2009-05-27 08:07:23 51°22.569 2°46.563 14.5 238 12.5 102400 79
2009-05-27 08:07:28 51°22.583 2°46.55 16.2 25 12.6 102410 79
2009-05-27 08:07:33 51°22.596 2°46.535 12.7 239 12.6 102410 79
2009-05-27 08:07:38 51°22.609 2°46.521 15.2 23 12.6 102390 79
2009-05-27 08:07:43 51°22.623 2°46.507 13.4 240 12.6 102390 79
2009-05-27 08:07:48 51°22.635 2°46.492 14.8 282 12.6 102400 79
2009-05-27 08:07:52 51°22.646 2°46.48 14.3 240 12.6 102400 79
2009-05-27 08:07:58 51°22.662 2°46.463 13.8 22 12.5 102380 78
2009-05-27 08:08:03 51°22.675 2°46.448 14.1 241 12.5 102380 78
2009-05-27 08:08:08 51°22.689 2°46.434 13.2 280 12.5 102380 78
2009-05-27 08:08:13 51°22.702 2°46.42 14.8 242 12.5 102380 78
2009-05-27 08:08:18 51°22.716 2°46.405 12.2 25 12.5 102390 78
2009-05-27 08:08:23 51°22.729 2°46.391 16.1 244 12.5 102390 78
2009-05-27 08:08:28 51°22.742 2°46.376 15.3 278 12.5 102380 78
2009-05-27 08:08:33 51°22.756 2°46.362 12.8 242 12.5 102380 78
2009-05-27 08:08:38 51°22.769 2°46.347 14.4 23 12.5 102390 78
2009-05-27 08:08:43 51°22.782 2°46.333 14.9 240 12.5 102390 78
2009-05-27 08:08:48 51°22.796 2°46.319 13.2 21 12.5 102380 79
2009-05-27 08:08:53 51°22.809 2°46.305 13.1 241 12.5 102380 79
2009-05-27 08:08:58 51°22.822 2°46.292 12.5 245 12.5 102380 79
2009-05-27 08:09:03 51°22.836 2°46.278 13.9 243 12.5 102380 79
2009-05-27 08:09:08 51°22.848 2°46.264 14.5 25 12.5 102390 80
2009-05-27 08:09:13 51°22.862 2°46.251 13.9 242 12.5 102390 80
2009-05-27 08:09:18 51°22.875 2°46.236 14.2 284 12.5 102390 80
2009-05-27 08:09:23 51°22.888 2°46.222 13.9 240 12.5 102390 80
2009-05-27 08:09:28 51°22.901 2°46.208 15.3 23 12.5 102370 80
2009-05-27 08:09:33 51°22.914 2°46.194 15 241 12.5 102370 80
2009-05-27 08:09:38 51°22.927 2°46.18 16 24 12.6 102390 81
2009-05-27 08:09:43 51°22.94 2°46.165 17 243 12.6 102390 81
2009-05-27 08:09:48 51°22.953 2°46.151 17.2 25 12.6 102380 80
2009-05-27 08:09:53 51°22.966 2°46.137 12.9 241 12.6 102380 80
2009-05-27 08:09:58 51°22.98 2°46.123 15 24 12.6 102400 80
2009-05-27 08:10:03 51°22.993 2°46.107 15.1 240 12.6 102400 80
2009-05-27 08:10:08 51°23.006 2°46.093 15 281 12.6 102380 79
2009-05-27 08:10:13 51°23.019 2°46.078 13.4 247 12.6 102380 79
2009-05-27 08:10:18 51°23.033 2°46.065 13.5 249 12.5 102380 79
2009-05-27 08:10:23 51°23.046 2°46.051 13.2 243 12.5 102380 79
2009-05-27 08:10:28 51°23.059 2°46.036 13.4 284 12.5 102380 80
2009-05-27 08:10:33 51°23.073 2°46.023 14.6 243 12.5 102380 80
2009-05-27 08:10:38 51°23.086 2°46.008 15.2 22 12.5 102380 80
2009-05-27 08:10:43 51°23.1 2°45.994 14.1 244 12.5 102380 80
2009-05-27 08:10:48 51°23.113 2°45.979 14.3 245 12.5 102380 80
2009-05-27 08:10:52 51°23.124 2°45.968 11.2 243 12.5 102380 80
2009-05-27 08:10:58 51°23.14 2°45.951 13.5 277 12.5 102410 79
2009-05-27 08:11:03 51°23.153 2°45.938 14.3 240 12.5 102410 79
2009-05-27 08:11:08 51°23.167 2°45.924 16.1 25 12.5 102380 80
2009-05-27 08:11:13 51°23.18 2°45.91 13.9 242 12.5 102380 80
2009-05-27 08:11:18 51°23.194 2°45.897 14.6 286 12.6 102400 81
2009-05-27 08:11:23 51°23.207 2°45.883 13.5 239 12.6 102400 81
2009-05-27 08:11:28 51°23.221 2°45.87 15.3 22 12.6 102390 81
2009-05-27 08:11:33 51°23.234 2°45.856 15 241 12.6 102390 81
2009-05-27 08:11:38 51°23.247 2°45.844 15.2 21 12.6 102380 81
2009-05-27 08:11:43 51°23.26 2°45.829 16.5 244 12.6 102380 81
2009-05-27 08:11:48 51°23.274 2°45.817 17.1 281 12.6 102370 81
2009-05-27 08:11:53 51°23.286 2°45.802 15.4 242 12.6 102370 81
2009-05-27 08:11:58 51°23.299 2°45.788 16.7 24 12.6 102370 80
2009-05-27 08:12:03 51°23.313 2°45.774 15 243 12.6 102370 80
2009-05-27 08:12:08 51°23.326 2°45.76 17.6 282 12.6 102370 80
2009-05-27 08:12:13 51°23.339 2°45.747 17.1 243 12.6 102370 80
2009-05-27 08:12:18 51°23.352 2°45.732 15.8 21 12.6 102380 80
2009-05-27 08:12:23 51°23.366 2°45.719 17 242 12.6 102380 80
2009-05-27 08:12:28 51°23.379 2°45.704 13.8 282 12.6 102370 80
2009-05-27 08:12:33 51°23.392 2°45.689 15 241 12.6 102370 80
2009-05-27 08:12:38 51°23.405 2°45.675 15.2 26 12.5 102380 80
2009-05-27 08:12:43 51°23.418 2°45.661 14.3 241 12.5 102380 80
2009-05-27 08:12:48 51°23.432 2°45.648 15 281 12.5 102380 79
2009-05-27 08:12:53 51°23.445 2°45.634 15.4 242 12.5 102380 79
2009-05-27 08:12:58 51°23.458 2°45.621 14.9 21 12.5 102380 79
2009-05-27 08:13:03 51°23.471 2°45.606 17.2 243 12.5 102380 79
2009-05-27 08:13:08 51°23.485 2°45.593 18.2 284 12.5 102390 79
2009-05-27 08:13:13 51°23.497 2°45.577 16.3 245 12.5 102390 79
2009-05-27 08:13:18 51°23.511 2°45.564 14.4 243 12.5 102370 79
2009-05-27 08:13:23 51°23.523 2°45.549 16.5 246 12.5 102370 79
2009-05-27 08:13:28 51°23.538 2°45.536 14.4 22 12.5 102380 79
2009-05-27 08:13:33 51°23.55 2°45.52 15.7 243 12.5 102380 79
2009-05-27 08:13:38 51°23.564 2°45.507 15 23 12.5 102370 79
2009-05-27 08:13:43 51°23.576 2°45.491 11.3 246 12.5 102370 79
2009-05-27 08:13:48 51°23.59 2°45.479 14.5 24 12.5 102380 80
2009-05-27 08:13:52 51°23.601 2°45.467 14.7 244 12.5 102380 80
2009-05-27 08:13:58 51°23.616 2°45.45 14.3 281 12.6 102370 80
2009-05-27 08:14:03 51°23.63 2°45.436 18.3 244 12.6 102370 80
2009-05-27 08:14:08 51°23.643 2°45.421 14.5 23 12.6 102380 80
2009-05-27 08:14:13 51°23.656 2°45.408 15.6 244 12.6 102380 80
2009-05-27 08:14:18 51°23.669 2°45.392 13.9 287 12.6 102380 81
2009-05-27 08:14:23 51°23.682 2°45.378 13.5 241 12.6 102380 81
2009-05-27 08:14:28 51°23.695 2°45.363 16.4 282 12.6 102380 80
2009-05-27 08:14:33 51°23.708 2°45.349 15 244 12.6 102380 80
2009-05-27 08:14:38 51°23.721 2°45.335 16.9 22 12.6 102380 80
2009-05-27 08:14:43 51°23.734 2°45.32 12.4 241 12.6 102380 80
2009-05-27 08:14:48 51°23.748 2°45.306 14.2 283 12.5 102380 80
2009-05-27 08:14:53 51°23.761 2°45.291 13.3 241 12.5 102380 80
2009-05-27 08:14:58 51°23.774 2°45.277 16.6 22 12.5 102390 80
2009-05-27 08:15:03 51°23.787 2°45.263 15.1 246 12.5 102390 80
2009-05-27 08:15:08 51°23.8 2°45.249 13.8 281 12.5 102370 80
2009-05-27 08:15:13 51°23.814 2°45.235 15.3 241 12.5 102370 80
2009-05-27 08:15:18 51°23.826 2°45.219 17.6 23 12.5 102380 80
2009-05-27 08:15:23 51°23.84 2°45.205 18.1 241 12.5 102380 80
2009-05-27 08:15:28 51°23.853 2°45.191 14.1 282 12.6 102370 80
2009-05-27 08:15:33 51°23.866 2°45.177 15.2 243 12.6 102370 80
2009-05-27 08:15:38 51°23.88 2°45.164 14.2 246 12.6 102390 80
2009-05-27 08:15:43 51°23.893 2°45.149 13.6 245 12.6 102390 80
2009-05-27 08:15:48 51°23.906 2°45.136 14.5 25 12.6 102380 80
2009-05-27 08:15:53 51°23.919 2°45.122 13.7 245 12.6 102380 80
2009-05-27 08:15:58 51°23.932 2°45.108 16.6 286 12.5 102390 79
2009-05-27 08:16:03 51°23.944 2°45.093 12.6 242 12.5 102390 79
2009-05-27 08:16:08 51°23.958 2°45.079 15.4 25 12.5 102370 79
2009-05-27 08:16:13 51°23.97 2°45.064 16.1 247 12.5 102370 79
2009-05-27 08:16:18 51°23.984 2°45.05 16.5 21 12.5 102370 80
2009-05-27 08:16:23 51°23.997 2°45.036 12.5 246 12.5 102370 80
2009-05-27 08:16:28 51°24.01 2°45.022 13.4 21 12.5 102380 80
2009-05-27 08:16:33 51°24.024 2°45.008 13.5 242 12.5 102380 80
2009-05-27 08:16:38 51°24.037 2°44.995 16.8 24 12.5 102390 80
2009-05-27 08:16:43 51°24.05 2°44.981 13.4 248 12.5 102390 80
2009-05-27 08:16:48 51°24.063 2°44.969 11.1 283 12.5 102380 80
2009-05-27 08:16:52 51°24.075 2°44.961 12.8 253 12.5 102380 80
2009-05-27 08:16:58 51°24.091 2°44.952 11 251 12.5 102380 81
2009-05-27 08:17:03 51°24.106 2°44.946 10 253 12.5 102380 81
2009-05-27 08:17:08 51°24.12 2°44.944 12.8 282 12.5 102380 81
2009-05-27 08:17:13 51°24.135 2°44.944 9.3 262 12.5 102380 81
2009-05-27 08:17:18 51°24.149 2°44.947 8.2 262 12.6 102390 81
2009-05-27 08:17:23 51°24.162 2°44.953 7 269 12.6 102390 81
2009-05-27 08:17:28 51°24.175 2°44.963 6.8 73 12.6 102390 82
2009-05-27 08:17:33 51°24.187 2°44.974 6.1 31 12.6 102390 82
2009-05-27 08:17:38 51°24.199 2°44.986 8.4 270 12.6 102430 82
2009-05-27 08:17:43 51°24.209 2°45.001 9.3 32 12.6 102430 82
2009-05-27 08:17:48 51°24.221 2°45.014 8.1 19 12.6 102410 81
2009-05-27 08:17:53 51°24.23 2°45.03 7.8 37 12.6 102410 81
2009-05-27 08:17:58 51°24.241 2°45.046 8 22 12.6 102430 81
2009-05-27 08:18:03 51°24.251 2°45.063 4.4 37 12.6 102430 81
2009-05-27 08:18:08 51°24.26 2°45.081 7 25 12.6 102430 81
2009-05-27 08:18:13 51°24.268 2°45.099 7.4 37 12.6 102430 81
2009-05-27 08:18:18 51°24.277 2°45.118 5.6 79 12.5 102430 80
2009-05-27 08:18:23 51°24.285 2°45.138 5 32 12.5 102430 80
2009-05-27 08:18:28 51°24.293 2°45.157 4.6 21 12.5 102430 80
2009-05-27 08:18:33 51°24.3 2°45.178 6.8 32 12.5 102430 80
2009-05-27 08:18:38 51°24.309 2°45.197 6 22 12.4 102430 79
2009-05-27 08:18:43 51°24.315 2°45.218 5.2 36 12.4 102430 79
2009-05-27 08:18:48 51°24.322 2°45.238 4.5 21 12.4 102430 79
2009-05-27 08:18:53 51°24.33 2°45.258 4.3 32 12.4 102430 79
2009-05-27 08:18:58 51°24.337 2°45.279 5.1 80 12.4 102420 78
2009-05-27 08:19:03 51°24.343 2°45.3 4.9 37 12.4 102420 78
2009-05-27 08:19:08 51°24.352 2°45.321 4.9 80 12.4 102430 79
2009-05-27 08:19:13 51°24.357 2°45.342 3.4 38 12.4 102430 79
2009-05-27 08:19:18 51°24.366 2°45.362 5.7 21 12.4 102420 81
2009-05-27 08:19:23 51°24.373 2°45.384 5.6 39 12.4 102420 81
2009-05-27 08:19:28 51°24.381 2°45.404 3.3 80 12.5 102430 80
2009-05-27 08:19:33 51°24.389 2°45.423 4.4 36 12.5 102430 80
2009-05-27 08:19:38 51°24.396 2°45.443 4.3 20 12.5 102430 81
2009-05-27 08:19:43 51°24.404 2°45.463 5.6 31 12.5 102430 81
2009-05-27 08:19:48 51°24.412 2°45.483 7 78 12.6 102430 80
2009-05-27 08:19:52 51°24.418 2°45.498 5.5 36 12.6 102430 80
2009-05-27 08:19:58 51°24.429 2°45.522 5.8 80 12.7 102420 80
2009-05-27 08:20:03 51°24.437 2°45.541 5.3 38 12.7 102420 80
2009-05-27 08:20:08 51°24.446 2°45.56 5.4 20 12.7 102420 79
2009-05-27 08:20:13 51°24.454 2°45.579 4.1 36 12.7 102420 79
2009-05-27 08:20:18 51°24.462 2°45.598 5.3 79 12.7 102420 78
2009-05-27 08:20:23 51°24.472 2°45.616 3.7 39 12.7 102420 78
2009-05-27 08:20:28 51°24.479 2°45.637 4.6 22 12.7 102430 78
2009-05-27 08:20:33 51°24.489 2°45.656 5.3 38 12.7 102430 78
2009-05-27 08:20:38 51°24.498 2°45.674 6 27 12.7 102420 78
2009-05-27 08:20:43 51°24.504 2°45.694 3.6 31 12.7 102420 78
2009-05-27 08:20:48 51°24.513 2°45.713 5.6 81 12.7 102420 77
2009-05-27 08:20:53 51°24.522 2°45.73 4.5 38 12.7 102420 77
2009-05-27 08:20:58 51°24.53 2°45.749 4.1 25 12.7 102420 77
2009-05-27 08:21:03 51°24.539 2°45.767 5.6 32 12.7 102420 77
2009-05-27 08:21:08 51°24.548 2°45.785 3.4 79 12.7 102420 78
2009-05-27 08:21:13 51°24.555 2°45.804 4.1 34 12.7 102420 78
2009-05-27 08:21:18 51°24.565 2°45.821 6.8 28 12.7 102430 78
2009-05-27 08:21:23 51°24.574 2°45.839 4.7 37 12.7 102430 78
2009-05-27 08:21:28 51°24.582 2°45.858 3.9 80 12.7 102420 78
2009-05-27 08:21:33 51°24.591 2°45.876 5.6 38 12.7 102420 78
2009-05-27 08:21:38 51°24.6 2°45.894 4.8 28 12.8 102430 78
2009-05-27 08:21:43 51°24.609 2°45.913 4.2 34 12.8 102430 78
2009-05-27 08:21:48 51°24.617 2°45.931 4 80 12.8 102420 79
2009-05-27 08:21:52 51°24.623 2°45.947 5.3 36 12.8 102420 79
2009-05-27 08:21:58 51°24.635 2°45.967 5.5 22 12.8 102420 79
2009-05-27 08:22:03 51°24.641 2°45.987 3.9 36 12.8 102420 79
2009-05-27 08:22:08 51°24.651 2°46.004 4 75 12.8 102420 79
2009-05-27 08:22:13 51°24.658 2°46.024 3.3 33 12.8 102420 79
2009-05-27 08:22:18 51°24.667 2°46.042 3.8 81 12.8 102420 79
2009-05-27 08:22:23 51°24.675 2°46.061 5.7 38 12.8 102420 79
2009-05-27 08:22:28 51°24.684 2°46.079 5.3 27 12.8 102430 79
2009-05-27 08:22:33 51°24.692 2°46.098 4.6 30 12.8 102430 79
2009-05-27 08:22:38 51°24.7 2°46.117 5.3 21 12.8 102430 80
2009-05-27 08:22:43 51°24.708 2°46.136 5.8 37 12.8 102430 80
2009-05-27 08:22:48 51°24.717 2°46.154 5.4 20 12.8 102430 80
2009-05-27 08:22:53 51°24.725 2°46.174 5.1 32 12.8 102430 80
2009-05-27 08:22:58 51°24.734 2°46.192 5.7 81 12.8 102430 80
2009-05-27 08:23:03 51°24.742 2°46.211 4.5 37 12.8 102430 80
2009-05-27 08:23:08 51°24.751 2°46.23 4.9 74 12.7 102420 79
2009-05-27 08:23:13 51°24.759 2°46.25 3.6 36 12.7 102420 79
2009-05-27 08:23:18 51°24.768 2°46.267 5 23 12.7 102420 78
2009-05-27 08:23:23 51°24.776 2°46.287 3.9 39 12.7 102420 78
2009-05-27 08:23:28 51°24.784 2°46.306 4.5 74 12.6 102430 79
2009-05-27 08:23:33 51°24.793 2°46.323 3.7 36 12.6 102430 79
2009-05-27 08:23:38 51°24.8 2°46.343 4 27 12.6 102430 78
2009-05-27 08:23:43 51°24.811 2°46.36 4.3 36 12.6 102430 78
2009-05-27 08:23:48 51°24.819 2°46.378 3.7 79 12.6 102430 79
2009-05-27 08:23:53 51°24.827 2°46.397 2.9 30 12.6 102430 79
2009-05-27 08:23:58 51°24.836 2°46.415 2.8 24 12.6 102420 80
2009-05-27 08:24:03 51°24.844 2°46.435 2.6 31 12.6 102420 80
2009-05-27 08:24:08 51°24.854 2°46.453 3.8 77 12.7 102430 80
2009-05-27 08:24:13 51°24.861 2°46.474 3 33 12.7 102430 80
2009-05-27 08:24:18 51°24.87 2°46.493 4.7 19 12.7 102420 81
2009-05-27 08:24:23 51°24.879 2°46.512 3.8 33 12.7 102420 81
2009-05-27 08:24:28 51°24.888 2°46.53 3.5 79 12.8 102420 80
2009-05-27 08:24:33 51°24.896 2°46.55 3.3 32 12.8 102420 80
2009-05-27 08:24:38 51°24.903 2°46.569 3.1 25 12.8 102420 81
2009-05-27 08:24:43 51°24.913 2°46.587 3.4 30 12.8 102420 81
2009-05-27 08:24:48 51°24.92 2°46.606 4.7 26 12.9 102430 80
2009-05-27 08:24:53 51°24.929 2°46.625 6.2 31 12.9 102430 80
2009-05-27 08:24:58 51°24.937 2°46.644 4.6 80 13 102430 81
2009-05-27 08:25:03 51°24.946 2°46.662 4.2 38 13 102430 81
2009-05-27 08:25:08 51°24.953 2°46.683 3.9 22 13 102420 79
2009-05-27 08:25:12 51°24.961 2°46.697 4.8 31 13 102420 79
2009-05-27 08:25:18 51°24.969 2°46.721 3.7 79 12.9 102430 77
2009-05-27 08:25:23 51°24.979 2°46.739 6.7 38 12.9 102430 77
2009-05-27 08:25:28 51°24.987 2°46.758 5.9 28 12.9 102430 76
2009-05-27 08:25:33 51°24.995 2°46.778 4.6 38 12.9 102430 76
2009-05-27 08:25:38 51°25.003 2°46.797 5.5 26 13 102420 77
2009-05-27 08:25:43 51°25.011 2°46.816 7.1 34 13 102420 77
2009-05-27 08:25:48 51°25.018 2°46.836 6.8 75 12.9 102410 75
2009-05-27 08:25:53 51°25.028 2°46.854 7.3 32 12.9 102410 75
2009-05-27 08:25:58 51°25.036 2°46.873 6.8 24 12.9 102420 75
2009-05-27 08:26:03 51°25.043 2°46.892 6.2 36 12.9 102420 75
2009-05-27 08:26:08 51°25.051 2°46.912 3.7 76 13 102420 75
2009-05-27 08:26:13 51°25.061 2°46.931 4.7 39 13 102420 75
2009-05-27 08:26:18 51°25.068 2°46.951 5.5 21 12.9 102420 75
2009-05-27 08:26:23 51°25.076 2°46.97 5.4 37 12.9 102420 75
2009-05-27 08:26:28 51°25.085 2°46.99 5.2 80 13 102420 75
2009-05-27 08:26:33 51°25.092 2°47.009 4.9 37 13 102420 75
2009-05-27 08:26:38 51°25.101 2°47.029 4.5 22 13 102420 76
2009-05-27 08:26:43 51°25.109 2°47.049 4 37 13 102420 76
2009-05-27 08:26:48 51°25.117 2°47.067 4.1 75 13 102420 76
2009-05-27 08:26:53 51°25.125 2°47.087 3.4 33 13 102420 76
2009-05-27 08:26:58 51°25.133 2°47.106 3.5 21 13 102430 76
2009-05-27 08:27:03 51°25.141 2°47.127 3.8 34 13 102430 76
2009-05-27 08:27:08 51°25.149 2°47.146 3.7 25 13.1 102420 77
2009-05-27 08:27:13 51°25.157 2°47.165 5.1 35 13.1 102420 77
2009-05-27 08:27:18 51°25.165 2°47.184 5 80 13.1 102420 77
2009-05-27 08:27:23 51°25.172 2°47.205 3.2 38 13.1 102420 77
2009-05-27 08:27:28 51°25.181 2°47.223 4.6 20 13.2 102420 77
2009-05-27 08:27:33 51°25.188 2°47.243 3.4 36 13.2 102420 77
2009-05-27 08:27:38 51°25.196 2°47.263 4.2 25 13.1 102430 76
2009-05-27 08:27:43 51°25.205 2°47.282 2.7 38 13.1 102430 76
2009-05-27 08:27:48 51°25.211 2°47.302 3.2 26 13.1 102420 77
2009-05-27 08:27:53 51°25.219 2°47.322 4.2 34 13.1 102420 77
2009-05-27 08:27:58 51°25.228 2°47.34 4.9 22 13.2 102430 77
2009-05-27 08:28:03 51°25.234 2°47.361 2.9 32 13.2 102430 77
2009-05-27 08:28:08 51°25.243 2°47.379 3.7 79 13.2 102420 77
2009-05-27 08:28:12 51°25.248 2°47.395 4.5 33 13.2 102420 77